sensor_id;sensor_type;location;lat;lon;timestamp;temperature;humidity
3402;DHT22;1714;49.756;8.610;2023-09-19T00:00:21;17.30;1.00
3402;DHT22;1714;49.756;8.610;2023-09-19T00:10:56;17.60;1.00
3402;DHT22;1714;49.756;8.610;2023-09-19T00:21:32;17.50;1.00
3402;DHT22;1714;49.756;8.610;2023-09-19T00:32:07;17.50;1.00
3402;DHT22;1714;49.756;8.610;2023-09-19T00:42:42;17.60;1.00
3402;DHT22;1714;49.756;8.610;2023-09-19T00:53:20;17.70;1.00
3402;DHT22;1714;49.756;8.610;2023-09-19T01:03:58;17.70;1.00
3402;DHT22;1714;49.756;8.610;2023-09-19T01:36:18;17.50;1.00
3402;DHT22;1714;49.756;8.610;2023-09-19T01:46:55;17.40;1.00
3402;DHT22;1714;49.756;8.610;2023-09-19T01:57:34;17.40;1.00
3402;DHT22;1714;49.756;8.610;2023-09-19T02:08:10;17.60;1.00
3402;DHT22;1714;49.756;8.610;2023-09-19T02:18:45;17.50;1.00
3402;DHT22;1714;49.756;8.610;2023-09-19T02:29:20;17.60;1.00
3402;DHT22;1714;49.756;8.610;2023-09-19T02:39:56;17.60;1.00
3402;DHT22;1714;49.756;8.610;2023-09-19T02:50:31;17.60;1.00
3402;DHT22;1714;49.756;8.610;2023-09-19T03:01:10;17.50;1.00
3402;DHT22;1714;49.756;8.610;2023-09-19T03:11:47;17.60;1.00
3402;DHT22;1714;49.756;8.610;2023-09-19T03:22:22;17.40;1.00
3402;DHT22;1714;49.756;8.610;2023-09-19T03:32:58;17.40;1.00
3402;DHT22;1714;49.756;8.610;2023-09-19T03:43:34;17.30;1.00
3402;DHT22;1714;49.756;8.610;2023-09-19T03:54:10;17.30;1.00
3402;DHT22;1714;49.756;8.610;2023-09-19T04:04:45;17.10;1.00
3402;DHT22;1714;49.756;8.610;2023-09-19T04:15:20;17.20;1.00
3402;DHT22;1714;49.756;8.610;2023-09-19T04:26:00;17.10;1.00
3402;DHT22;1714;49.756;8.610;2023-09-19T04:36:34;17.00;1.00
3402;DHT22;1714;49.756;8.610;2023-09-19T04:47:11;17.00;1.00
3402;DHT22;1714;49.756;8.610;2023-09-19T04:57:48;17.00;1.00
3402;DHT22;1714;49.756;8.610;2023-09-19T05:08:23;16.90;1.00
3402;DHT22;1714;49.756;8.610;2023-09-19T05:18:58;16.90;1.00
3402;DHT22;1714;49.756;8.610;2023-09-19T05:29:34;16.80;1.00
3402;DHT22;1714;49.756;8.610;2023-09-19T05:40:09;16.70;1.00
3402;DHT22;1714;49.756;8.610;2023-09-19T05:50:44;16.80;1.00
3402;DHT22;1714;49.756;8.610;2023-09-19T06:01:22;16.70;1.00
3402;DHT22;1714;49.756;8.610;2023-09-19T06:11:56;16.80;1.00
3402;DHT22;1714;49.756;8.610;2023-09-19T06:22:31;16.80;1.00
3402;DHT22;1714;49.756;8.610;2023-09-19T06:33:06;16.70;1.00
3402;DHT22;1714;49.756;8.610;2023-09-19T06:43:41;17.00;1.00
3402;DHT22;1714;49.756;8.610;2023-09-19T06:54:16;17.30;1.00
3402;DHT22;1714;49.756;8.610;2023-09-19T07:04:52;17.20;1.00
3402;DHT22;1714;49.756;8.610;2023-09-19T07:15:28;17.20;1.00
3402;DHT22;1714;49.756;8.610;2023-09-19T07:26:04;17.30;1.00
3402;DHT22;1714;49.756;8.610;2023-09-19T07:36:40;17.40;1.00
3402;DHT22;1714;49.756;8.610;2023-09-19T07:47:16;17.50;1.00
3402;DHT22;1714;49.756;8.610;2023-09-19T07:57:52;17.70;1.00
3402;DHT22;1714;49.756;8.610;2023-09-19T08:08:27;17.80;1.00
3402;DHT22;1714;49.756;8.610;2023-09-19T08:19:02;18.10;1.00
3402;DHT22;1714;49.756;8.610;2023-09-19T08:29:36;18.30;1.00
3402;DHT22;1714;49.756;8.610;2023-09-19T08:40:11;18.30;1.00
3402;DHT22;1714;49.756;8.610;2023-09-19T08:50:51;18.40;1.00
3402;DHT22;1714;49.756;8.610;2023-09-19T09:01:28;18.60;1.00
3402;DHT22;1714;49.756;8.610;2023-09-19T09:12:04;19.20;1.00
3402;DHT22;1714;49.756;8.610;2023-09-19T09:22:51;19.80;1.00
3402;DHT22;1714;49.756;8.610;2023-09-19T09:33:27;19.40;1.00
3402;DHT22;1714;49.756;8.610;2023-09-19T09:44:13;19.30;1.00
3402;DHT22;1714;49.756;8.610;2023-09-19T09:55:03;19.60;1.00
3402;DHT22;1714;49.756;8.610;2023-09-19T10:05:44;20.00;1.00
3402;DHT22;1714;49.756;8.610;2023-09-19T10:16:20;20.30;1.00
3402;DHT22;1714;49.756;8.610;2023-09-19T10:26:55;20.20;1.00
3402;DHT22;1714;49.756;8.610;2023-09-19T10:37:32;20.60;1.00
3402;DHT22;1714;49.756;8.610;2023-09-19T10:48:08;20.60;1.00
3402;DHT22;1714;49.756;8.610;2023-09-19T10:58:44;20.80;1.00
3402;DHT22;1714;49.756;8.610;2023-09-19T11:09:19;21.20;1.00
3402;DHT22;1714;49.756;8.610;2023-09-19T11:30:50;21.20;1.00
3402;DHT22;1714;49.756;8.610;2023-09-19T11:52:01;21.70;1.00
3402;DHT22;1714;49.756;8.610;2023-09-19T12:02:42;22.00;1.00
3402;DHT22;1714;49.756;8.610;2023-09-19T12:13:21;22.30;1.00
3402;DHT22;1714;49.756;8.610;2023-09-19T12:34:39;21.80;1.00
3402;DHT22;1714;49.756;8.610;2023-09-19T12:45:24;22.30;1.00
3402;DHT22;1714;49.756;8.610;2023-09-19T12:56:00;22.40;1.00
3402;DHT22;1714;49.756;8.610;2023-09-19T13:06:36;22.40;1.00
3402;DHT22;1714;49.756;8.610;2023-09-19T13:17:18;22.50;1.00
3402;DHT22;1714;49.756;8.610;2023-09-19T13:27:57;21.90;1.00
3402;DHT22;1714;49.756;8.610;2023-09-19T13:38:32;22.00;1.00
3402;DHT22;1714;49.756;8.610;2023-09-19T13:49:09;21.80;1.00
3402;DHT22;1714;49.756;8.610;2023-09-19T13:59:44;22.40;1.00
3402;DHT22;1714;49.756;8.610;2023-09-19T14:10:19;22.40;1.00
3402;DHT22;1714;49.756;8.610;2023-09-19T14:20:54;22.80;1.00
3402;DHT22;1714;49.756;8.610;2023-09-19T14:31:29;22.50;1.00
3402;DHT22;1714;49.756;8.610;2023-09-19T14:42:04;22.10;1.00
3402;DHT22;1714;49.756;8.610;2023-09-19T14:52:39;22.20;1.00
3402;DHT22;1714;49.756;8.610;2023-09-19T15:03:14;22.20;1.00
3402;DHT22;1714;49.756;8.610;2023-09-19T15:13:52;22.00;1.00
3402;DHT22;1714;49.756;8.610;2023-09-19T15:24:29;22.00;1.00
3402;DHT22;1714;49.756;8.610;2023-09-19T15:35:04;22.30;1.00
3402;DHT22;1714;49.756;8.610;2023-09-19T15:45:40;22.40;1.00
3402;DHT22;1714;49.756;8.610;2023-09-19T15:56:17;22.30;1.00
3402;DHT22;1714;49.756;8.610;2023-09-19T16:06:52;22.40;1.00
3402;DHT22;1714;49.756;8.610;2023-09-19T16:17:27;21.90;1.00
3402;DHT22;1714;49.756;8.610;2023-09-19T16:28:02;21.60;1.00
3402;DHT22;1714;49.756;8.610;2023-09-19T16:38:38;21.50;1.00
3402;DHT22;1714;49.756;8.610;2023-09-19T16:49:13;21.20;1.00
3402;DHT22;1714;49.756;8.610;2023-09-19T16:59:48;21.00;1.00
3402;DHT22;1714;49.756;8.610;2023-09-19T17:10:24;20.90;1.00
3402;DHT22;1714;49.756;8.610;2023-09-19T17:21:05;20.70;1.00
3402;DHT22;1714;49.756;8.610;2023-09-19T17:31:40;20.60;1.00
3402;DHT22;1714;49.756;8.610;2023-09-19T17:42:15;20.40;1.00
3402;DHT22;1714;49.756;8.610;2023-09-19T17:52:51;20.20;1.00
3402;DHT22;1714;49.756;8.610;2023-09-19T18:03:26;20.10;1.00
3402;DHT22;1714;49.756;8.610;2023-09-19T18:14:01;20.00;1.00
3402;DHT22;1714;49.756;8.610;2023-09-19T18:24:36;19.90;1.00
3402;DHT22;1714;49.756;8.610;2023-09-19T18:35:11;19.90;1.00
3402;DHT22;1714;49.756;8.610;2023-09-19T18:45:57;19.70;1.00
3402;DHT22;1714;49.756;8.610;2023-09-19T18:56:32;19.60;1.00
3402;DHT22;1714;49.756;8.610;2023-09-19T19:07:09;19.30;1.00
3402;DHT22;1714;49.756;8.610;2023-09-19T19:17:46;19.20;1.00
3402;DHT22;1714;49.756;8.610;2023-09-19T19:28:21;19.00;1.00
3402;DHT22;1714;49.756;8.610;2023-09-19T19:38:59;18.80;1.00
3402;DHT22;1714;49.756;8.610;2023-09-19T19:49:35;18.80;1.00
3402;DHT22;1714;49.756;8.610;2023-09-19T20:00:11;18.60;1.00
3402;DHT22;1714;49.756;8.610;2023-09-19T20:10:47;18.50;1.00
3402;DHT22;1714;49.756;8.610;2023-09-19T20:21:22;18.50;1.00
3402;DHT22;1714;49.756;8.610;2023-09-19T20:31:56;18.50;1.00
3402;DHT22;1714;49.756;8.610;2023-09-19T20:42:32;18.40;1.00
3402;DHT22;1714;49.756;8.610;2023-09-19T20:53:07;18.30;1.00
3402;DHT22;1714;49.756;8.610;2023-09-19T21:03:43;18.30;1.00
3402;DHT22;1714;49.756;8.610;2023-09-19T21:14:18;18.30;1.00
3402;DHT22;1714;49.756;8.610;2023-09-19T21:24:54;18.30;1.00
3402;DHT22;1714;49.756;8.610;2023-09-19T21:35:30;18.40;1.00
3402;DHT22;1714;49.756;8.610;2023-09-19T21:46:05;18.40;1.00
3402;DHT22;1714;49.756;8.610;2023-09-19T21:56:40;18.40;1.00
3402;DHT22;1714;49.756;8.610;2023-09-19T22:07:15;18.40;1.00
3402;DHT22;1714;49.756;8.610;2023-09-19T22:17:51;18.30;1.00
3402;DHT22;1714;49.756;8.610;2023-09-19T22:28:26;18.20;1.00
3402;DHT22;1714;49.756;8.610;2023-09-19T22:39:03;18.10;1.00
3402;DHT22;1714;49.756;8.610;2023-09-19T22:49:47;18.10;1.00
3402;DHT22;1714;49.756;8.610;2023-09-19T23:00:23;18.10;1.00
3402;DHT22;1714;49.756;8.610;2023-09-19T23:11:06;18.10;1.00
3402;DHT22;1714;49.756;8.610;2023-09-19T23:21:44;18.20;1.00
3402;DHT22;1714;49.756;8.610;2023-09-19T23:32:19;18.10;1.00
3402;DHT22;1714;49.756;8.610;2023-09-19T23:42:56;18.30;1.00
3402;DHT22;1714;49.756;8.610;2023-09-19T23:53:32;18.30;1.00
